sensor_id;sensor_type;location;lat;lon;timestamp;pressure;altitude;pressure_sealevel;temperature;humidity
58875;BME280;44652;49.040;12.126;2023-06-22T05:10:27;56916.91;;;-145.08;100.00
58875;BME280;44652;49.040;12.126;2023-06-22T05:12:54;56916.91;;;-145.08;100.00
58875;BME280;44652;49.040;12.126;2023-06-22T05:15:21;56916.91;;;-145.08;100.00
58875;BME280;44652;49.040;12.126;2023-06-22T05:17:53;56916.91;;;-145.08;100.00
58875;BME280;44652;49.040;12.126;2023-06-22T05:20:20;56916.91;;;-145.08;100.00
58875;BME280;44652;49.040;12.126;2023-06-22T05:22:48;56916.91;;;-145.08;100.00
58875;BME280;44652;49.040;12.126;2023-06-22T05:25:15;56916.91;;;-145.08;100.00
58875;BME280;44652;49.040;12.126;2023-06-22T05:27:42;56916.91;;;-145.08;100.00
58875;BME280;44652;49.040;12.126;2023-06-22T05:30:10;56916.91;;;-145.08;100.00
58875;BME280;44652;49.040;12.126;2023-06-22T05:32:38;56916.91;;;-145.08;100.00
58875;BME280;44652;49.040;12.126;2023-06-22T05:35:05;56916.91;;;-145.08;100.00
58875;BME280;44652;49.040;12.126;2023-06-22T05:37:32;56916.91;;;-145.08;100.00
58875;BME280;44652;49.040;12.126;2023-06-22T05:39:58;56916.91;;;-145.08;100.00
58875;BME280;44652;49.040;12.126;2023-06-22T05:42:25;56916.91;;;-145.08;100.00
58875;BME280;44652;49.040;12.126;2023-06-22T05:44:52;56916.91;;;-145.08;100.00
58875;BME280;44652;49.040;12.126;2023-06-22T05:47:20;56916.91;;;-145.08;100.00
58875;BME280;44652;49.040;12.126;2023-06-22T05:49:46;56916.91;;;-145.08;100.00
58875;BME280;44652;49.040;12.126;2023-06-22T05:52:13;56916.91;;;-145.08;100.00
58875;BME280;44652;49.040;12.126;2023-06-22T05:54:40;56916.91;;;-145.08;100.00
58875;BME280;44652;49.040;12.126;2023-06-22T05:57:08;56916.91;;;-145.08;100.00
58875;BME280;44652;49.040;12.126;2023-06-22T05:59:34;56916.91;;;-145.08;100.00
58875;BME280;44652;49.040;12.126;2023-06-22T06:02:01;56916.91;;;-145.08;100.00
58875;BME280;44652;49.040;12.126;2023-06-22T06:04:28;56916.91;;;-145.08;100.00
58875;BME280;44652;49.040;12.126;2023-06-22T06:06:55;56916.91;;;-145.08;100.00
58875;BME280;44652;49.040;12.126;2023-06-22T06:09:21;56916.91;;;-145.08;100.00
58875;BME280;44652;49.040;12.126;2023-06-22T06:11:48;56916.91;;;-145.08;100.00
58875;BME280;44652;49.040;12.126;2023-06-22T06:14:14;56916.91;;;-145.08;100.00
58875;BME280;44652;49.040;12.126;2023-06-22T06:16:43;56916.91;;;-145.08;100.00
58875;BME280;44652;49.040;12.126;2023-06-22T06:19:10;56916.91;;;-145.08;100.00
58875;BME280;44652;49.040;12.126;2023-06-22T06:21:37;56916.91;;;-145.08;100.00
58875;BME280;44652;49.040;12.126;2023-06-22T06:24:03;56916.91;;;-145.08;100.00
58875;BME280;44652;49.040;12.126;2023-06-22T06:26:30;56916.91;;;-145.08;100.00
58875;BME280;44652;49.040;12.126;2023-06-22T06:29:00;56916.91;;;-145.08;100.00
58875;BME280;44652;49.040;12.126;2023-06-22T06:31:26;56916.91;;;-145.08;100.00
58875;BME280;44652;49.040;12.126;2023-06-22T06:33:55;56916.91;;;-145.08;100.00
58875;BME280;44652;49.040;12.126;2023-06-22T17:58:27;96987.16;;;30.11;50.88
58875;BME280;44652;49.040;12.126;2023-06-22T18:00:54;96975.97;;;29.87;52.60
58875;BME280;44652;49.040;12.126;2023-06-22T18:03:24;96997.22;;;29.80;54.21
58875;BME280;44652;49.040;12.126;2023-06-22T18:05:54;96995.59;;;29.62;54.20
58875;BME280;44652;49.040;12.126;2023-06-22T18:08:25;96999.81;;;29.51;53.02
58875;BME280;44652;49.040;12.126;2023-06-22T18:10:53;96993.13;;;29.57;51.64
58875;BME280;44652;49.040;12.126;2023-06-22T18:13:23;97001.72;;;29.49;51.05
58875;BME280;44652;49.040;12.126;2023-06-22T18:15:50;97021.72;;;29.64;51.61
58875;BME280;44652;49.040;12.126;2023-06-22T18:18:17;97029.50;;;29.70;49.69
58875;BME280;44652;49.040;12.126;2023-06-22T18:20:45;97027.66;;;29.71;48.77
58875;BME280;44652;49.040;12.126;2023-06-22T18:23:14;97032.22;;;29.70;47.74
58875;BME280;44652;49.040;12.126;2023-06-22T18:25:41;97031.59;;;29.65;47.79
58875;BME280;44652;49.040;12.126;2023-06-22T18:28:12;97036.94;;;29.51;48.27
58875;BME280;44652;49.040;12.126;2023-06-22T18:30:39;97068.56;;;29.52;48.23
58875;BME280;44652;49.040;12.126;2023-06-22T18:33:08;97053.19;;;29.37;49.41
58875;BME280;44652;49.040;12.126;2023-06-22T18:35:37;97024.91;;;29.25;50.18
58875;BME280;44652;49.040;12.126;2023-06-22T18:38:04;97012.13;;;29.11;52.53
58875;BME280;44652;49.040;12.126;2023-06-22T18:40:31;97002.84;;;28.99;55.74
58875;BME280;44652;49.040;12.126;2023-06-22T18:42:59;97013.25;;;28.75;55.77
58875;BME280;44652;49.040;12.126;2023-06-22T18:45:29;97014.34;;;28.55;57.23
58875;BME280;44652;49.040;12.126;2023-06-22T18:50:45;97019.19;;;28.16;57.52
58875;BME280;44652;49.040;12.126;2023-06-22T18:53:27;97055.38;;;28.14;58.12
58875;BME280;44652;49.040;12.126;2023-06-22T18:56:14;97070.13;;;27.92;60.63
58875;BME280;44652;49.040;12.126;2023-06-22T18:58:41;97087.72;;;27.83;61.17
58875;BME280;44652;49.040;12.126;2023-06-22T19:01:18;97096.91;;;27.61;67.51
58875;BME280;44652;49.040;12.126;2023-06-22T19:03:50;97091.56;;;27.24;71.02
58875;BME280;44652;49.040;12.126;2023-06-22T19:06:53;97102.97;;;27.11;75.79
58875;BME280;44652;49.040;12.126;2023-06-22T19:09:20;97103.53;;;26.99;73.55
58875;BME280;44652;49.040;12.126;2023-06-22T19:11:48;97104.19;;;26.85;72.67
58875;BME280;44652;49.040;12.126;2023-06-22T19:14:21;97105.06;;;26.67;74.46
58875;BME280;44652;49.040;12.126;2023-06-22T19:16:57;97089.47;;;26.53;81.68
58875;BME280;44652;49.040;12.126;2023-06-22T19:19:25;97096.09;;;26.46;79.96
58875;BME280;44652;49.040;12.126;2023-06-22T19:21:59;97109.94;;;26.38;84.51
58875;BME280;44652;49.040;12.126;2023-06-22T19:24:31;97110.19;;;26.32;92.06
58875;BME280;44652;49.040;12.126;2023-06-22T19:26:58;97117.28;;;26.35;87.64
58875;BME280;44652;49.040;12.126;2023-06-22T19:29:26;97106.69;;;26.30;85.60
58875;BME280;44652;49.040;12.126;2023-06-22T19:31:54;97067.88;;;26.12;83.75
58875;BME280;44652;49.040;12.126;2023-06-22T19:34:22;97015.09;;;26.24;83.55
58875;BME280;44652;49.040;12.126;2023-06-22T19:36:49;96940.66;;;25.98;84.35
58875;BME280;44652;49.040;12.126;2023-06-22T19:39:16;96933.28;;;25.83;87.11
58875;BME280;44652;49.040;12.126;2023-06-22T19:41:45;96880.47;;;25.76;85.80
58875;BME280;44652;49.040;12.126;2023-06-22T19:44:12;96860.31;;;25.64;87.08
58875;BME280;44652;49.040;12.126;2023-06-22T19:46:39;96814.13;;;25.32;92.87
58875;BME280;44652;49.040;12.126;2023-06-22T19:49:08;96797.53;;;25.21;89.62
58875;BME280;44652;49.040;12.126;2023-06-22T19:51:35;96801.59;;;25.31;82.23
58875;BME280;44652;49.040;12.126;2023-06-22T19:54:09;96775.50;;;25.11;79.98
58875;BME280;44652;49.040;12.126;2023-06-22T19:56:38;96782.38;;;25.18;76.29
58875;BME280;44652;49.040;12.126;2023-06-22T19:59:14;96769.94;;;25.35;72.95
58875;BME280;44652;49.040;12.126;2023-06-22T20:01:46;96760.25;;;25.31;74.27
58875;BME280;44652;49.040;12.126;2023-06-22T20:04:13;96775.63;;;25.29;74.79
58875;BME280;44652;49.040;12.126;2023-06-22T20:06:48;96778.75;;;25.19;74.51
58875;BME280;44652;49.040;12.126;2023-06-22T20:09:25;96798.19;;;25.26;79.16
58875;BME280;44652;49.040;12.126;2023-06-22T20:11:56;96796.44;;;25.25;78.97
58875;BME280;44652;49.040;12.126;2023-06-22T20:14:23;96771.50;;;24.99;82.21
58875;BME280;44652;49.040;12.126;2023-06-22T20:16:50;96757.69;;;24.87;79.10
58875;BME280;44652;49.040;12.126;2023-06-22T20:19:34;96817.25;;;24.81;82.40
58875;BME280;44652;49.040;12.126;2023-06-22T20:22:07;96835.09;;;24.63;82.40
58875;BME280;44652;49.040;12.126;2023-06-22T20:24:34;96856.56;;;24.44;80.61
58875;BME280;44652;49.040;12.126;2023-06-22T20:27:01;96881.31;;;24.30;81.01
58875;BME280;44652;49.040;12.126;2023-06-22T20:29:31;96950.56;;;24.26;82.18
58875;BME280;44652;49.040;12.126;2023-06-22T20:32:10;96989.34;;;24.22;77.98
58875;BME280;44652;49.040;12.126;2023-06-22T20:37:05;97018.97;;;24.22;76.64
58875;BME280;44652;49.040;12.126;2023-06-22T20:39:35;97064.38;;;24.32;77.57
58875;BME280;44652;49.040;12.126;2023-06-22T20:42:04;97138.13;;;24.29;76.88
58875;BME280;44652;49.040;12.126;2023-06-22T20:44:31;97179.09;;;24.39;75.05
58875;BME280;44652;49.040;12.126;2023-06-22T20:46:58;97180.63;;;24.19;73.26
58875;BME280;44652;49.040;12.126;2023-06-22T20:49:25;97207.53;;;23.94;72.75
58875;BME280;44652;49.040;12.126;2023-06-22T20:51:55;97208.97;;;23.48;71.96
58875;BME280;44652;49.040;12.126;2023-06-22T20:54:22;97226.53;;;23.32;71.63
58875;BME280;44652;49.040;12.126;2023-06-22T20:56:49;97226.50;;;23.04;70.07
58875;BME280;44652;49.040;12.126;2023-06-22T20:59:16;97261.75;;;22.93;69.10
58875;BME280;44652;49.040;12.126;2023-06-22T21:01:42;97316.91;;;22.74;69.08
58875;BME280;44652;49.040;12.126;2023-06-22T21:04:13;97386.81;;;22.71;68.81
58875;BME280;44652;49.040;12.126;2023-06-22T21:06:42;97480.94;;;22.68;70.55
58875;BME280;44652;49.040;12.126;2023-06-22T21:09:09;97484.44;;;21.46;89.74
58875;BME280;44652;49.040;12.126;2023-06-22T21:11:57;97456.78;;;20.34;100.00
58875;BME280;44652;49.040;12.126;2023-06-22T21:14:41;97456.78;;;20.34;100.00
58875;BME280;44652;49.040;12.126;2023-06-22T21:17:25;56916.91;;;-145.08;100.00
58875;BME280;44652;49.040;12.126;2023-06-22T21:20:37;56916.91;;;-145.08;100.00
58875;BME280;44652;49.040;12.126;2023-06-22T21:23:46;56916.91;;;-145.08;100.00
58875;BME280;44652;49.040;12.126;2023-06-22T21:26:13;56916.91;;;-145.08;100.00
58875;BME280;44652;49.040;12.126;2023-06-22T21:28:40;56916.91;;;-145.08;100.00
58875;BME280;44652;49.040;12.126;2023-06-22T21:31:06;56916.91;;;-145.08;100.00
58875;BME280;44652;49.040;12.126;2023-06-22T21:33:33;56916.91;;;-145.08;100.00
58875;BME280;44652;49.040;12.126;2023-06-22T21:36:00;56916.91;;;-145.08;100.00
58875;BME280;44652;49.040;12.126;2023-06-22T21:38:27;56916.91;;;-145.08;100.00
58875;BME280;44652;49.040;12.126;2023-06-22T21:40:54;56916.91;;;-145.08;100.00
58875;BME280;44652;49.040;12.126;2023-06-22T21:43:20;56916.91;;;-145.08;100.00
58875;BME280;44652;49.040;12.126;2023-06-22T21:45:47;56916.91;;;-145.08;100.00
58875;BME280;44652;49.040;12.126;2023-06-22T21:48:14;56916.91;;;-145.08;100.00
58875;BME280;44652;49.040;12.126;2023-06-22T21:50:41;56916.91;;;-145.08;100.00
58875;BME280;44652;49.040;12.126;2023-06-22T21:53:08;56916.91;;;-145.08;100.00
58875;BME280;44652;49.040;12.126;2023-06-22T21:55:35;56916.91;;;-145.08;100.00
58875;BME280;44652;49.040;12.126;2023-06-22T21:58:02;56916.91;;;-145.08;100.00
58875;BME280;44652;49.040;12.126;2023-06-22T22:00:29;56916.91;;;-145.08;100.00
58875;BME280;44652;49.040;12.126;2023-06-22T22:02:55;56916.91;;;-145.08;100.00
58875;BME280;44652;49.040;12.126;2023-06-22T22:05:22;56916.91;;;-145.08;100.00
58875;BME280;44652;49.040;12.126;2023-06-22T22:07:49;56916.91;;;-145.08;100.00
58875;BME280;44652;49.040;12.126;2023-06-22T22:10:16;56916.91;;;-145.08;100.00
58875;BME280;44652;49.040;12.126;2023-06-22T22:12:44;56916.91;;;-145.08;100.00
58875;BME280;44652;49.040;12.126;2023-06-22T22:15:11;56916.91;;;-145.08;100.00
58875;BME280;44652;49.040;12.126;2023-06-22T22:17:39;56916.91;;;-145.08;100.00
58875;BME280;44652;49.040;12.126;2023-06-22T22:20:07;56916.91;;;-145.08;100.00
58875;BME280;44652;49.040;12.126;2023-06-22T22:22:35;56916.91;;;-145.08;100.00
58875;BME280;44652;49.040;12.126;2023-06-22T22:25:02;56916.91;;;-145.08;100.00
58875;BME280;44652;49.040;12.126;2023-06-22T22:27:30;56916.91;;;-145.08;100.00
58875;BME280;44652;49.040;12.126;2023-06-22T22:29:58;56916.91;;;-145.08;100.00
58875;BME280;44652;49.040;12.126;2023-06-22T22:32:25;56916.91;;;-145.08;100.00
58875;BME280;44652;49.040;12.126;2023-06-22T22:34:52;56916.91;;;-145.08;100.00
58875;BME280;44652;49.040;12.126;2023-06-22T22:37:19;56916.91;;;-145.08;100.00
58875;BME280;44652;49.040;12.126;2023-06-22T22:39:45;56916.91;;;-145.08;100.00
58875;BME280;44652;49.040;12.126;2023-06-22T22:42:15;56916.91;;;-145.08;100.00
58875;BME280;44652;49.040;12.126;2023-06-22T22:44:42;56916.91;;;-145.08;100.00
58875;BME280;44652;49.040;12.126;2023-06-22T22:47:09;56916.91;;;-145.08;100.00
58875;BME280;44652;49.040;12.126;2023-06-22T22:49:35;56916.91;;;-145.08;100.00
58875;BME280;44652;49.040;12.126;2023-06-22T22:52:02;56916.91;;;-145.08;100.00
58875;BME280;44652;49.040;12.126;2023-06-22T22:54:29;56916.91;;;-145.08;100.00
58875;BME280;44652;49.040;12.126;2023-06-22T22:56:56;56916.91;;;-145.08;100.00
58875;BME280;44652;49.040;12.126;2023-06-22T22:59:23;56916.91;;;-145.08;100.00
58875;BME280;44652;49.040;12.126;2023-06-22T23:01:50;56916.91;;;-145.08;100.00
58875;BME280;44652;49.040;12.126;2023-06-22T23:04:16;56916.91;;;-145.08;100.00
58875;BME280;44652;49.040;12.126;2023-06-22T23:06:44;56916.91;;;-145.08;100.00
58875;BME280;44652;49.040;12.126;2023-06-22T23:09:11;56916.91;;;-145.08;100.00
58875;BME280;44652;49.040;12.126;2023-06-22T23:11:38;56916.91;;;-145.08;100.00
58875;BME280;44652;49.040;12.126;2023-06-22T23:14:05;56916.91;;;-145.08;100.00
58875;BME280;44652;49.040;12.126;2023-06-22T23:16:32;56916.91;;;-145.08;100.00
58875;BME280;44652;49.040;12.126;2023-06-22T23:18:59;56916.91;;;-145.08;100.00
58875;BME280;44652;49.040;12.126;2023-06-22T23:21:26;56916.91;;;-145.08;100.00
58875;BME280;44652;49.040;12.126;2023-06-22T23:23:55;56916.91;;;-145.08;100.00
58875;BME280;44652;49.040;12.126;2023-06-22T23:26:22;56916.91;;;-145.08;100.00
58875;BME280;44652;49.040;12.126;2023-06-22T23:28:49;56916.91;;;-145.08;100.00
58875;BME280;44652;49.040;12.126;2023-06-22T23:31:16;56916.91;;;-145.08;100.00
58875;BME280;44652;49.040;12.126;2023-06-22T23:33:43;56916.91;;;-145.08;100.00
58875;BME280;44652;49.040;12.126;2023-06-22T23:36:09;56916.91;;;-145.08;100.00
58875;BME280;44652;49.040;12.126;2023-06-22T23:38:36;56916.91;;;-145.08;100.00
58875;BME280;44652;49.040;12.126;2023-06-22T23:41:05;56916.91;;;-145.08;100.00
58875;BME280;44652;49.040;12.126;2023-06-22T23:43:34;56916.91;;;-145.08;100.00
58875;BME280;44652;49.040;12.126;2023-06-22T23:46:01;56916.91;;;-145.08;100.00
58875;BME280;44652;49.040;12.126;2023-06-22T23:48:30;56916.91;;;-145.08;100.00
58875;BME280;44652;49.040;12.126;2023-06-22T23:50:57;56916.91;;;-145.08;100.00
58875;BME280;44652;49.040;12.126;2023-06-22T23:53:27;56916.91;;;-145.08;100.00
58875;BME280;44652;49.040;12.126;2023-06-22T23:55:53;56916.91;;;-145.08;100.00
58875;BME280;44652;49.040;12.126;2023-06-22T23:58:24;56916.91;;;-145.08;100.00
